Time;durP1;ratioP1;P1;durP2;ratioP2;P2;SDS_P1;SDS_P2;PMS_P1;PMS_P2;Temp;Humidity;BMP_temperature;BMP_pressure;BME280_temperature;BME280_humidity;BME280_pressure;Samples;Min_cycle;Max_cycle;Signal;HPM_P1;HPM_P2
2022/06/11 00:01:20;;;;;;;0.10;0.10;;;;;;;;;;4901450;29;20043;-88
2022/06/11 00:03:46;;;;;;;0.10;0.10;;;;;;;;;;4916946;29;20048;-89
2022/06/11 00:06:12;;;;;;;0.10;0.10;;;;;;;;;;4916962;29;20044;-89
2022/06/11 00:08:38;;;;;;;0.10;0.10;;;;;;;;;;4901270;29;20459;-88
2022/06/11 00:11:05;;;;;;;0.10;0.10;;;;;;;;;;4901675;29;20039;-89
2022/06/11 00:13:31;;;;;;;0.10;0.10;;;;;;;;;;4916788;29;20099;-89
2022/06/11 00:15:57;;;;;;;0.10;0.10;;;;;;;;;;4916883;29;20040;-88
2022/06/11 00:18:23;;;;;;;0.10;0.10;;;;;;;;;;4900977;29;20412;-88
2022/06/11 00:20:49;;;;;;;0.10;0.10;;;;;;;;;;4916881;29;20242;-89
2022/06/11 00:23:15;;;;;;;0.10;0.10;;;;;;;;;;4901207;29;20215;-89
2022/06/11 00:25:41;;;;;;;0.10;0.10;;;;;;;;;;4901091;29;20151;-89
2022/06/11 00:28:07;;;;;;;0.10;0.10;;;;;;;;;;4901113;29;20103;-89
2022/06/11 00:30:33;;;;;;;0.10;0.10;;;;;;;;;;4900942;29;20508;-89
2022/06/11 00:32:59;;;;;;;0.10;0.10;;;;;;;;;;4916427;29;20036;-89
2022/06/11 00:35:25;;;;;;;0.10;0.10;;;;;;;;;;4916587;29;20043;-88
2022/06/11 00:37:51;;;;;;;0.10;0.10;;;;;;;;;;4916556;29;20131;-88
2022/06/11 00:40:18;;;;;;;0.10;0.10;;;;;;;;;;4916428;29;20079;-89
2022/06/11 00:42:44;;;;;;;0.10;0.10;;;;;;;;;;4916216;29;20044;-89
2022/06/11 00:45:16;;;;;;;0.10;0.10;;;;;;;;;;4900506;29;20052;-88
2022/06/11 00:47:43;;;;;;;0.10;0.10;;;;;;;;;;4916324;29;20051;-88
2022/06/11 00:50:17;;;;;;;0.10;0.10;;;;;;;;;;4900814;29;20070;-88
2022/06/11 00:52:43;;;;;;;0.10;0.10;;;;;;;;;;4900341;29;20396;-88
2022/06/11 00:55:10;;;;;;;0.10;0.10;;;;;;;;;;4915332;29;20036;-88
2022/06/11 00:57:37;;;;;;;0.20;0.20;;;;;;;;;;4916035;29;20044;-87
2022/06/11 01:00:15;;;;;;;0.20;0.20;;;;;;;;;;4900326;29;20050;-87
2022/06/11 01:02:42;;;;;;;0.10;0.10;;;;;;;;;;4900650;29;20377;-87
2022/06/11 01:05:08;;;;;;;0.10;0.10;;;;;;;;;;4900518;29;20075;-88
2022/06/11 01:07:34;;;;;;;0.10;0.10;;;;;;;;;;4900215;29;20392;-88
2022/06/11 01:10:00;;;;;;;0.10;0.10;;;;;;;;;;4916045;29;20130;-88
2022/06/11 01:12:29;;;;;;;0.10;0.10;;;;;;;;;;4915686;29;20496;-88
2022/06/11 01:14:58;;;;;;;0.10;0.10;;;;;;;;;;4915741;29;20071;-88
2022/06/11 01:17:30;;;;;;;0.10;0.10;;;;;;;;;;4915511;29;20066;-88
2022/06/11 01:20:19;;;;;;;0.10;0.10;;;;;;;;;;4900255;29;20063;-88
2022/06/11 01:22:45;;;;;;;0.10;0.10;;;;;;;;;;4915714;29;20142;-89
2022/06/11 01:25:40;;;;;;;0.20;0.20;;;;;;;;;;4915759;29;20382;-88
2022/06/11 01:28:19;;;;;;;0.10;0.10;;;;;;;;;;4819229;29;20057;-88
2022/06/11 01:30:47;;;;;;;0.10;0.10;;;;;;;;;;4915832;29;20051;-88
2022/06/11 01:33:16;;;;;;;0.10;0.10;;;;;;;;;;4899662;29;20187;-88
2022/06/11 01:35:46;;;;;;;0.10;0.10;;;;;;;;;;4915538;29;20477;-88
2022/06/11 01:38:32;;;;;;;0.10;0.10;;;;;;;;;;4899892;29;20563;-88
2022/06/11 01:41:07;;;;;;;0.20;0.20;;;;;;;;;;4915586;29;20051;-89
2022/06/11 01:43:40;;;;;;;0.20;0.20;;;;;;;;;;4915085;29;20180;-88
2022/06/11 01:46:08;;;;;;;0.10;0.10;;;;;;;;;;4915383;29;20048;-89
2022/06/11 01:48:34;;;;;;;0.10;0.10;;;;;;;;;;4899629;29;20377;-88
2022/06/11 01:51:17;;;;;;;0.10;0.10;;;;;;;;;;4899502;29;20040;-89
2022/06/11 01:53:50;;;;;;;0.10;0.10;;;;;;;;;;4915031;29;20040;-89
2022/06/11 01:56:21;;;;;;;0.10;0.10;;;;;;;;;;4915189;29;20044;-88
2022/06/11 01:59:06;;;;;;;0.10;0.10;;;;;;;;;;4899429;29;20044;-88
2022/06/11 02:01:35;;;;;;;0.10;0.10;;;;;;;;;;4914960;29;20052;-88
2022/06/11 02:04:13;;;;;;;0.10;0.10;;;;;;;;;;4899187;29;20125;-88
2022/06/11 02:06:39;;;;;;;0.15;0.15;;;;;;;;;;4899410;29;20127;-89
2022/06/11 02:09:22;;;;;;;0.10;0.10;;;;;;;;;;4914990;29;20096;-89
2022/06/11 02:11:49;;;;;;;0.10;0.10;;;;;;;;;;4899532;29;20051;-89
2022/06/11 02:14:23;;;;;;;0.10;0.10;;;;;;;;;;4899380;29;20440;-88
2022/06/11 02:16:56;;;;;;;0.10;0.10;;;;;;;;;;4898904;29;20064;-89
2022/06/11 02:19:24;;;;;;;0.10;0.10;;;;;;;;;;4914991;29;20048;-88
2022/06/11 02:22:04;;;;;;;0.10;0.10;;;;;;;;;;4914987;29;20055;-88
2022/06/11 02:24:31;;;;;;;0.10;0.10;;;;;;;;;;4898983;29;20397;-89
2022/06/11 02:26:58;;;;;;;0.10;0.10;;;;;;;;;;4899185;29;20051;-89
2022/06/11 02:29:24;;;;;;;0.10;0.10;;;;;;;;;;4898935;29;20048;-88
2022/06/11 02:31:51;;;;;;;0.10;0.10;;;;;;;;;;4899271;29;20047;-88
2022/06/11 02:34:18;;;;;;;0.10;0.10;;;;;;;;;;4899049;29;20048;-89
2022/06/11 02:36:48;;;;;;;0.10;0.10;;;;;;;;;;4914743;29;20496;-88
2022/06/11 02:39:14;;;;;;;0.10;0.10;;;;;;;;;;4899134;29;20051;-88
2022/06/11 02:41:42;;;;;;;0.10;0.10;;;;;;;;;;4898849;29;20048;-89
2022/06/11 02:44:08;;;;;;;0.10;0.10;;;;;;;;;;4899160;29;20048;-89
2022/06/11 02:46:43;;;;;;;0.10;0.10;;;;;;;;;;4914791;29;20052;-89
2022/06/11 02:49:10;;;;;;;0.10;0.10;;;;;;;;;;4900070;29;20107;-89
2022/06/11 02:51:36;;;;;;;0.10;0.10;;;;;;;;;;4898716;29;20344;-89
2022/06/11 02:54:02;;;;;;;0.10;0.10;;;;;;;;;;4898987;29;20127;-87
2022/06/11 02:56:28;;;;;;;0.10;0.10;;;;;;;;;;4898664;29;20048;-88
2022/06/11 02:58:55;;;;;;;0.10;0.10;;;;;;;;;;4899084;29;20084;-88
2022/06/11 03:01:21;;;;;;;0.10;0.10;;;;;;;;;;4898726;29;20523;-88
2022/06/11 03:03:49;;;;;;;0.10;0.10;;;;;;;;;;4898879;29;20044;-88
2022/06/11 03:06:15;;;;;;;0.10;0.10;;;;;;;;;;4914522;29;20048;-88
2022/06/11 03:08:41;;;;;;;0.10;0.10;;;;;;;;;;4898542;29;20488;-88
2022/06/11 03:11:07;;;;;;;0.10;0.10;;;;;;;;;;4898492;29;20065;-87
2022/06/11 03:13:33;;;;;;;0.10;0.10;;;;;;;;;;4914228;29;20080;-87
2022/06/11 03:15:59;;;;;;;0.20;0.20;;;;;;;;;;4898646;29;20050;-87
2022/06/11 03:18:25;;;;;;;0.10;0.10;;;;;;;;;;4901508;29;20063;-87
2022/06/11 03:20:51;;;;;;;0.15;0.15;;;;;;;;;;4917895;29;20147;-88
2022/06/11 03:23:17;;;;;;;0.15;0.15;;;;;;;;;;4902179;29;20488;-88
2022/06/11 03:25:43;;;;;;;0.10;0.10;;;;;;;;;;4902007;29;20054;-87
2022/06/11 03:28:10;;;;;;;0.10;0.10;;;;;;;;;;4901983;29;20044;-88
2022/06/11 03:30:36;;;;;;;0.10;0.10;;;;;;;;;;4917633;29;20039;-87
2022/06/11 03:33:02;;;;;;;0.10;0.10;;;;;;;;;;4901894;29;20046;-88
2022/06/11 03:35:28;;;;;;;0.10;0.10;;;;;;;;;;4917629;29;20036;-90
2022/06/11 03:37:56;;;;;;;0.20;0.20;;;;;;;;;;4917518;29;20130;-88
2022/06/11 03:40:21;;;;;;;0.10;0.10;;;;;;;;;;4901966;29;20079;-88
2022/06/11 03:42:47;;;;;;;0.10;0.10;;;;;;;;;;4901828;29;20079;-88
2022/06/11 03:45:13;;;;;;;0.10;0.10;;;;;;;;;;4917386;29;20400;-88
2022/06/11 03:47:40;;;;;;;0.10;0.10;;;;;;;;;;4917254;29;20044;-88
2022/06/11 03:50:09;;;;;;;0.10;0.10;;;;;;;;;;4901691;29;20052;-88
2022/06/11 03:52:35;;;;;;;0.10;0.10;;;;;;;;;;4901279;29;20075;-88
2022/06/11 03:55:01;;;;;;;0.10;0.10;;;;;;;;;;4917256;29;20040;-89
2022/06/11 03:57:27;;;;;;;0.10;0.10;;;;;;;;;;4901869;29;20396;-88
2022/06/11 03:59:53;;;;;;;0.10;0.10;;;;;;;;;;4901522;29;20050;-88
2022/06/11 04:02:19;;;;;;;0.10;0.10;;;;;;;;;;4901799;29;20083;-89
2022/06/11 04:04:45;;;;;;;0.10;0.10;;;;;;;;;;4901482;29;20044;-88
2022/06/11 04:07:13;;;;;;;0.10;0.10;;;;;;;;;;4901253;29;20127;-87
2022/06/11 04:09:40;;;;;;;0.10;0.10;;;;;;;;;;4901139;29;20047;-88
2022/06/11 04:12:09;;;;;;;0.30;0.30;;;;;;;;;;4901366;29;20127;-87
2022/06/11 04:14:35;;;;;;;0.10;0.10;;;;;;;;;;4916800;29;20048;-87
2022/06/11 04:17:05;;;;;;;0.10;0.10;;;;;;;;;;4916702;29;20063;-87
2022/06/11 04:19:33;;;;;;;0.10;0.10;;;;;;;;;;4917031;29;20051;-88
2022/06/11 04:21:59;;;;;;;0.10;0.10;;;;;;;;;;4917006;29;20131;-86
2022/06/11 04:24:25;;;;;;;0.20;0.20;;;;;;;;;;4901115;29;20044;-89
2022/06/11 04:26:51;;;;;;;0.10;0.10;;;;;;;;;;4901469;29;20044;-89
2022/06/11 04:29:18;;;;;;;0.10;0.10;;;;;;;;;;4900935;29;20054;-88
2022/06/11 04:31:45;;;;;;;0.10;0.10;;;;;;;;;;4900999;29;20040;-88
2022/06/11 04:34:12;;;;;;;0.10;0.10;;;;;;;;;;4900820;29;20078;-88
2022/06/11 04:36:38;;;;;;;0.10;0.10;;;;;;;;;;4916776;29;20453;-89
2022/06/11 04:39:05;;;;;;;0.20;0.20;;;;;;;;;;4901050;29;20083;-87
2022/06/11 04:41:31;;;;;;;0.13;0.13;;;;;;;;;;4916548;29;20047;-87
2022/06/11 04:43:57;;;;;;;0.13;0.13;;;;;;;;;;4900752;29;20043;-87
2022/06/11 04:46:23;;;;;;;0.10;0.10;;;;;;;;;;4916406;29;20036;-87
2022/06/11 04:48:49;;;;;;;0.10;0.10;;;;;;;;;;4900647;29;20119;-87
2022/06/11 04:51:15;;;;;;;0.10;0.10;;;;;;;;;;4900889;29;20040;-87
2022/06/11 04:53:41;;;;;;;0.10;0.10;;;;;;;;;;4916417;29;20051;-86
2022/06/11 04:56:07;;;;;;;0.10;0.10;;;;;;;;;;4916202;29;20128;-87
2022/06/11 04:58:33;;;;;;;0.10;0.10;;;;;;;;;;4900811;29;20381;-87
2022/06/11 05:00:59;;;;;;;0.10;0.10;;;;;;;;;;4900452;29;20068;-87
2022/06/11 05:03:25;;;;;;;0.20;0.20;;;;;;;;;;4900066;29;20075;-87
2022/06/11 05:05:51;;;;;;;0.10;0.10;;;;;;;;;;4916128;29;20443;-86
2022/06/11 05:08:17;;;;;;;0.10;0.10;;;;;;;;;;4900208;29;20167;-87
2022/06/11 05:10:44;;;;;;;0.10;0.10;;;;;;;;;;4915873;29;20079;-87
2022/06/11 05:13:10;;;;;;;0.10;0.10;;;;;;;;;;4900148;29;20123;-87
2022/06/11 05:15:38;;;;;;;0.13;0.13;;;;;;;;;;4900506;29;20131;-88
2022/06/11 05:18:04;;;;;;;0.10;0.10;;;;;;;;;;4899818;29;20092;-88
2022/06/11 05:20:30;;;;;;;0.10;0.10;;;;;;;;;;4916128;29;20044;-87
2022/06/11 05:22:56;;;;;;;0.10;0.10;;;;;;;;;;4899893;29;20043;-88
2022/06/11 05:25:22;;;;;;;0.30;0.30;;;;;;;;;;4900132;29;20063;-87
2022/06/11 05:27:48;;;;;;;0.17;0.17;;;;;;;;;;4899743;29;20047;-88
2022/06/11 05:30:16;;;;;;;0.10;0.10;;;;;;;;;;4915535;29;20079;-87
2022/06/11 05:32:42;;;;;;;0.10;0.10;;;;;;;;;;4915233;29;20469;-88
2022/06/11 05:35:09;;;;;;;0.10;0.10;;;;;;;;;;4899823;29;20554;-88
2022/06/11 05:37:35;;;;;;;0.57;0.52;;;;;;;;;;4899774;29;20052;-87
2022/06/11 05:40:01;;;;;;;0.30;0.30;;;;;;;;;;4899068;29;20096;-87
2022/06/11 05:42:27;;;;;;;0.10;0.10;;;;;;;;;;4915231;29;20259;-87
2022/06/11 05:44:53;;;;;;;0.10;0.10;;;;;;;;;;4899839;29;20581;-87
2022/06/11 05:47:20;;;;;;;0.10;0.10;;;;;;;;;;4899564;29;20647;-87
2022/06/11 05:49:47;;;;;;;0.10;0.10;;;;;;;;;;4899643;29;20079;-87
2022/06/11 05:52:17;;;;;;;0.20;0.20;;;;;;;;;;4899529;29;20040;-88
2022/06/11 05:54:44;;;;;;;0.15;0.15;;;;;;;;;;4899492;29;20139;-87
2022/06/11 05:57:11;;;;;;;0.10;0.10;;;;;;;;;;4899484;29;20119;-87
2022/06/11 05:59:38;;;;;;;0.17;0.17;;;;;;;;;;4899412;29;20048;-87
2022/06/11 06:02:08;;;;;;;0.10;0.10;;;;;;;;;;4899432;29;20044;-87
2022/06/11 06:04:35;;;;;;;0.10;0.10;;;;;;;;;;4914902;29;20039;-87
2022/06/11 06:07:01;;;;;;;0.10;0.10;;;;;;;;;;4914984;29;20044;-86
2022/06/11 06:09:26;;;;;;;0.10;0.10;;;;;;;;;;4899390;29;20054;-87
2022/06/11 06:11:52;;;;;;;0.10;0.10;;;;;;;;;;4899388;29;20043;-88
2022/06/11 06:14:18;;;;;;;2.95;0.30;;;;;;;;;;4914646;29;20156;-88
2022/06/11 06:16:44;;;;;;;0.10;0.10;;;;;;;;;;4899000;29;20417;-87
2022/06/11 06:19:10;;;;;;;0.15;0.15;;;;;;;;;;4914947;29;20056;-86
2022/06/11 06:21:37;;;;;;;0.10;0.10;;;;;;;;;;4914774;29;20543;-87
2022/06/11 06:24:03;;;;;;;0.20;0.20;;;;;;;;;;4914691;29;20079;-86
2022/06/11 06:26:29;;;;;;;0.20;0.20;;;;;;;;;;4914957;29;20040;-87
2022/06/11 06:28:55;;;;;;;0.20;0.20;;;;;;;;;;4897352;29;20040;-87
2022/06/11 06:31:21;;;;;;;0.10;0.10;;;;;;;;;;4899216;29;20055;-87
2022/06/11 06:33:47;;;;;;;0.10;0.10;;;;;;;;;;4898701;29;20048;-86
2022/06/11 06:36:14;;;;;;;0.20;0.20;;;;;;;;;;4914619;29;20060;-86
2022/06/11 06:38:40;;;;;;;0.10;0.10;;;;;;;;;;4914154;29;20048;-87
2022/06/11 06:41:06;;;;;;;0.20;0.20;;;;;;;;;;4898880;29;20044;-87
2022/06/11 06:43:32;;;;;;;0.77;0.47;;;;;;;;;;4914721;29;20454;-88
2022/06/11 06:45:58;;;;;;;0.10;0.10;;;;;;;;;;4900451;29;20080;-87
2022/06/11 06:48:24;;;;;;;0.43;0.20;;;;;;;;;;4899276;29;20079;-88
2022/06/11 06:50:50;;;;;;;0.13;0.13;;;;;;;;;;4898857;29;20044;-86
2022/06/11 06:53:16;;;;;;;0.15;0.15;;;;;;;;;;4901967;29;20059;-85
2022/06/11 06:55:42;;;;;;;0.10;0.10;;;;;;;;;;4902657;29;20048;-86
2022/06/11 06:58:08;;;;;;;0.10;0.10;;;;;;;;;;4918068;29;20103;-86
2022/06/11 07:00:34;;;;;;;0.10;0.10;;;;;;;;;;4918232;29;20119;-87
2022/06/11 07:03:00;;;;;;;0.10;0.10;;;;;;;;;;4902284;29;20044;-90
2022/06/11 07:05:26;;;;;;;0.13;0.13;;;;;;;;;;4918223;29;20040;-91
2022/06/11 07:07:52;;;;;;;0.10;0.10;;;;;;;;;;4918265;29;20043;-90
2022/06/11 07:10:18;;;;;;;0.43;0.43;;;;;;;;;;4902429;29;20051;-91
2022/06/11 07:12:44;;;;;;;0.20;0.20;;;;;;;;;;4902204;29;20040;-89
2022/06/11 07:15:10;;;;;;;0.30;0.30;;;;;;;;;;4902137;29;20048;-90
2022/06/11 07:17:38;;;;;;;0.10;0.10;;;;;;;;;;4901943;29;20066;-88
2022/06/11 07:20:05;;;;;;;0.10;0.10;;;;;;;;;;4917842;29;20083;-88
2022/06/11 07:22:39;;;;;;;0.10;0.10;;;;;;;;;;4917733;29;20047;-85
2022/06/11 07:25:06;;;;;;;0.30;0.30;;;;;;;;;;4901728;29;20535;-85
2022/06/11 07:27:33;;;;;;;0.13;0.13;;;;;;;;;;4901997;29;20044;-85
2022/06/11 07:30:04;;;;;;;0.20;0.20;;;;;;;;;;4902445;29;20076;-85
2022/06/11 07:32:35;;;;;;;0.10;0.10;;;;;;;;;;4917790;29;20044;-87
2022/06/11 07:35:02;;;;;;;0.20;0.20;;;;;;;;;;4917638;29;20122;-87
2022/06/11 07:37:27;;;;;;;0.30;0.30;;;;;;;;;;4917601;29;20040;-87
2022/06/11 07:39:53;;;;;;;0.40;0.40;;;;;;;;;;4901770;29;20043;-87
2022/06/11 07:42:19;;;;;;;0.20;0.20;;;;;;;;;;4901751;29;20036;-88
2022/06/11 07:44:45;;;;;;;0.10;0.10;;;;;;;;;;4917397;29;20059;-87
2022/06/11 07:47:11;;;;;;;0.10;0.10;;;;;;;;;;4901666;29;20408;-87
2022/06/11 07:49:37;;;;;;;0.10;0.10;;;;;;;;;;4901616;29;20063;-87
2022/06/11 07:52:03;;;;;;;0.10;0.10;;;;;;;;;;4901648;29;20036;-87
2022/06/11 07:54:31;;;;;;;0.15;0.15;;;;;;;;;;4901636;29;20044;-86
2022/06/11 07:56:57;;;;;;;0.15;0.15;;;;;;;;;;4901607;29;20535;-86
2022/06/11 07:59:23;;;;;;;0.10;0.10;;;;;;;;;;4901790;29;20135;-86
2022/06/11 08:01:49;;;;;;;0.20;0.20;;;;;;;;;;4916785;29;20504;-88
2022/06/11 08:04:15;;;;;;;0.20;0.20;;;;;;;;;;4900943;29;20048;-88
2022/06/11 08:06:41;;;;;;;0.52;0.52;;;;;;;;;;4901102;29;20047;-89
2022/06/11 08:09:07;;;;;;;0.20;0.20;;;;;;;;;;4901082;29;20074;-89
2022/06/11 08:11:33;;;;;;;0.10;0.10;;;;;;;;;;4916910;29;20099;-89
2022/06/11 08:14:00;;;;;;;0.20;0.20;;;;;;;;;;4901202;29;20131;-88
2022/06/11 08:16:26;;;;;;;0.13;0.13;;;;;;;;;;4901989;29;20190;-88
2022/06/11 08:18:52;;;;;;;0.20;0.20;;;;;;;;;;4888733;29;20139;-88
2022/06/11 08:21:18;;;;;;;0.20;0.20;;;;;;;;;;4888538;29;20050;-88
2022/06/11 08:23:44;;;;;;;0.20;0.20;;;;;;;;;;4919992;29;20095;-88
2022/06/11 08:26:10;;;;;;;0.20;0.20;;;;;;;;;;4888975;29;20036;-88
2022/06/11 08:28:36;;;;;;;0.20;0.20;;;;;;;;;;4888210;29;20075;-88
2022/06/11 08:31:04;;;;;;;0.20;0.20;;;;;;;;;;4904183;29;20044;-89
2022/06/11 08:33:30;;;;;;;0.20;0.20;;;;;;;;;;4888751;29;20042;-89
2022/06/11 08:35:56;;;;;;;0.20;0.20;;;;;;;;;;4888369;29;20476;-88
2022/06/11 08:38:22;;;;;;;0.10;0.10;;;;;;;;;;4888698;29;20044;-89
2022/06/11 08:40:49;;;;;;;0.10;0.10;;;;;;;;;;4903877;29;20155;-89
2022/06/11 08:43:20;;;;;;;0.17;0.17;;;;;;;;;;4888434;29;20071;-90
2022/06/11 08:45:47;;;;;;;0.20;0.20;;;;;;;;;;4903798;29;20054;-89
2022/06/11 08:48:34;;;;;;;0.20;0.20;;;;;;;;;;4903710;29;20506;-88
2022/06/11 08:51:09;;;;;;;0.20;0.20;;;;;;;;;;4906399;29;20073;-90
2022/06/11 08:53:36;;;;;;;0.20;0.20;;;;;;;;;;4919369;29;20049;-90
2022/06/11 08:56:02;;;;;;;0.20;0.20;;;;;;;;;;4919452;29;20495;-89
2022/06/11 08:58:51;;;;;;;0.30;0.30;;;;;;;;;;4904933;29;20059;-89
2022/06/11 09:01:23;;;;;;;0.13;0.13;;;;;;;;;;4907287;29;20081;-88
2022/06/11 09:03:55;;;;;;;0.15;0.15;;;;;;;;;;4918956;29;20131;-89
2022/06/11 09:06:21;;;;;;;0.20;0.20;;;;;;;;;;4919079;29;20054;-88
2022/06/11 09:09:00;;;;;;;0.10;0.10;;;;;;;;;;4903173;29;20044;-89
2022/06/11 09:11:30;;;;;;;0.20;0.20;;;;;;;;;;4918860;29;20420;-89
2022/06/11 09:14:15;;;;;;;0.15;0.15;;;;;;;;;;4902842;29;20079;-89
2022/06/11 09:17:00;;;;;;;0.20;0.20;;;;;;;;;;4918436;29;20075;-88
2022/06/11 09:19:30;;;;;;;0.20;0.20;;;;;;;;;;4903052;29;20055;-89
2022/06/11 09:22:02;;;;;;;0.20;0.20;;;;;;;;;;4902983;29;20095;-88
2022/06/11 09:24:49;;;;;;;0.20;0.20;;;;;;;;;;4918725;29;20511;-88
2022/06/11 09:27:18;;;;;;;0.20;0.20;;;;;;;;;;4918345;29;20047;-89
2022/06/11 09:29:43;;;;;;;0.20;0.20;;;;;;;;;;4918497;29;20061;-87
2022/06/11 09:32:13;;;;;;;0.45;0.43;;;;;;;;;;4918680;29;20487;-88
2022/06/11 09:34:42;;;;;;;0.20;0.20;;;;;;;;;;4903905;29;20071;-85
2022/06/11 09:37:20;;;;;;;0.55;0.55;;;;;;;;;;4919485;29;20582;-85
2022/06/11 09:39:56;;;;;;;0.75;0.75;;;;;;;;;;4902854;29;20118;-85
2022/06/11 09:42:42;;;;;;;0.95;0.85;;;;;;;;;;4922174;29;20043;-86
2022/06/11 09:45:37;;;;;;;0.17;0.17;;;;;;;;;;4918491;29;20479;-85
2022/06/11 09:48:25;;;;;;;0.20;0.20;;;;;;;;;;4883014;29;20415;-85
2022/06/11 09:50:52;;;;;;;0.20;0.20;;;;;;;;;;4919030;29;20070;-86
2022/06/11 09:53:21;;;;;;;0.20;0.20;;;;;;;;;;4904665;29;20042;-85
2022/06/11 09:55:58;;;;;;;0.20;0.20;;;;;;;;;;4918408;29;20055;-88
2022/06/11 09:58:31;;;;;;;0.20;0.20;;;;;;;;;;4920478;29;20063;-88
2022/06/11 10:00:59;;;;;;;0.20;0.20;;;;;;;;;;4902454;29;20044;-87
2022/06/11 10:03:32;;;;;;;4.03;0.30;;;;;;;;;;4917930;29;20055;-85
2022/06/11 10:06:06;;;;;;;0.17;0.17;;;;;;;;;;4918177;29;20126;-85
2022/06/11 10:08:45;;;;;;;0.13;0.13;;;;;;;;;;4902403;29;20047;-85
2022/06/11 10:11:20;;;;;;;0.30;0.30;;;;;;;;;;4917958;29;20047;-84
2022/06/11 10:16:51;;;;;;;0.20;0.20;;;;;;;;;;4934815;29;20052;-84
2022/06/11 10:19:23;;;;;;;1.38;0.57;;;;;;;;;;4886699;29;20046;-84
2022/06/11 10:21:52;;;;;;;0.20;0.20;;;;;;;;;;4902156;29;20447;-84
2022/06/11 10:24:18;;;;;;;0.15;0.15;;;;;;;;;;4917441;29;20090;-83
2022/06/11 10:26:48;;;;;;;0.20;0.20;;;;;;;;;;4901758;29;20047;-84
2022/06/11 10:29:35;;;;;;;0.17;0.17;;;;;;;;;;4901781;29;20500;-85
2022/06/11 10:32:02;;;;;;;0.30;0.30;;;;;;;;;;4901716;29;20131;-84
2022/06/11 10:34:29;;;;;;;0.20;0.20;;;;;;;;;;4902084;29;20411;-83
2022/06/11 10:36:58;;;;;;;0.20;0.20;;;;;;;;;;4901758;29;20047;-84
2022/06/11 10:39:33;;;;;;;0.20;0.20;;;;;;;;;;4901641;29;20043;-84
2022/06/11 10:42:07;;;;;;;0.20;0.20;;;;;;;;;;4917440;29;20054;-84
2022/06/11 10:44:43;;;;;;;0.10;0.10;;;;;;;;;;4901592;29;20075;-84
2022/06/11 10:47:19;;;;;;;0.20;0.20;;;;;;;;;;4917701;29;20127;-84
2022/06/11 10:49:46;;;;;;;0.20;0.20;;;;;;;;;;4917528;29;20059;-84
2022/06/11 10:52:31;;;;;;;0.20;0.20;;;;;;;;;;4901793;29;20082;-83
2022/06/11 10:54:57;;;;;;;0.20;0.20;;;;;;;;;;4934702;29;20044;-85
2022/06/11 10:57:25;;;;;;;0.20;0.20;;;;;;;;;;4902099;29;20044;-84
2022/06/11 11:00:12;;;;;;;0.20;0.20;;;;;;;;;;4901911;29;20062;-86
2022/06/11 11:02:42;;;;;;;0.20;0.20;;;;;;;;;;4902096;29;20500;-86
2022/06/11 11:05:09;;;;;;;0.20;0.20;;;;;;;;;;4902101;29;20050;-85
2022/06/11 11:07:55;;;;;;;0.15;0.15;;;;;;;;;;4902010;29;20075;-86
2022/06/11 11:10:21;;;;;;;0.20;0.20;;;;;;;;;;4917312;29;20036;-87
2022/06/11 11:12:47;;;;;;;0.20;0.20;;;;;;;;;;4917332;29;20035;-87
2022/06/11 11:15:17;;;;;;;0.20;0.20;;;;;;;;;;4901976;29;20179;-87
2022/06/11 11:17:44;;;;;;;0.20;0.20;;;;;;;;;;4901689;29;20063;-87
2022/06/11 11:20:32;;;;;;;0.20;0.20;;;;;;;;;;4901976;29;20051;-87
2022/06/11 11:23:00;;;;;;;0.10;0.10;;;;;;;;;;4903074;29;20083;-87
2022/06/11 11:25:30;;;;;;;0.15;0.15;;;;;;;;;;4901746;29;20039;-87
2022/06/11 11:27:56;;;;;;;0.20;0.20;;;;;;;;;;4889037;29;20091;-86
2022/06/11 11:30:38;;;;;;;0.10;0.10;;;;;;;;;;4916205;29;20078;-86
2022/06/11 11:33:13;;;;;;;0.20;0.20;;;;;;;;;;4901498;29;20119;-85
2022/06/11 11:35:40;;;;;;;0.20;0.20;;;;;;;;;;4917495;29;20035;-87
2022/06/11 11:38:14;;;;;;;0.10;0.10;;;;;;;;;;4918234;29;20126;-86
2022/06/11 11:40:50;;;;;;;0.10;0.10;;;;;;;;;;4921000;29;20048;-86
2022/06/11 11:43:16;;;;;;;0.20;0.20;;;;;;;;;;4905066;29;20155;-86
2022/06/11 11:45:45;;;;;;;0.20;0.20;;;;;;;;;;4889255;29;20048;-86
2022/06/11 11:48:25;;;;;;;0.30;0.30;;;;;;;;;;4920563;29;20043;-85
2022/06/11 11:50:51;;;;;;;0.10;0.10;;;;;;;;;;4920481;29;20121;-85
2022/06/11 11:53:20;;;;;;;0.20;0.20;;;;;;;;;;4904657;29;20050;-86
2022/06/11 11:55:53;;;;;;;0.20;0.17;;;;;;;;;;4904648;29;20565;-84
2022/06/11 11:58:22;;;;;;;0.10;0.10;;;;;;;;;;4904682;29;20051;-86
2022/06/11 12:00:50;;;;;;;0.20;0.20;;;;;;;;;;4904553;29;20046;-84
2022/06/11 12:03:35;;;;;;;0.20;0.20;;;;;;;;;;4904444;29;20062;-85
2022/06/11 12:06:01;;;;;;;0.10;0.10;;;;;;;;;;4920071;29;20052;-84
2022/06/11 12:08:29;;;;;;;0.10;0.10;;;;;;;;;;4920015;29;20079;-85
2022/06/11 12:10:57;;;;;;;0.10;0.10;;;;;;;;;;4888938;29;20043;-84
2022/06/11 12:13:31;;;;;;;0.20;0.20;;;;;;;;;;4888951;29;20046;-85
2022/06/11 12:16:06;;;;;;;0.10;0.10;;;;;;;;;;4904377;29;20040;-87
2022/06/11 12:18:52;;;;;;;0.10;0.10;;;;;;;;;;4888518;29;20063;-87
2022/06/11 12:21:19;;;;;;;0.10;0.10;;;;;;;;;;4904374;29;20134;-87
2022/06/11 12:23:45;;;;;;;0.10;0.10;;;;;;;;;;4920000;29;20054;-87
2022/06/11 12:26:13;;;;;;;0.10;0.10;;;;;;;;;;4904269;29;20040;-88
2022/06/11 12:28:42;;;;;;;0.10;0.10;;;;;;;;;;4903963;29;20051;-88
2022/06/11 12:31:09;;;;;;;0.20;0.20;;;;;;;;;;4904135;29;20095;-87
2022/06/11 12:33:35;;;;;;;0.10;0.10;;;;;;;;;;4903993;29;20526;-88
2022/06/11 12:36:05;;;;;;;0.10;0.10;;;;;;;;;;4904225;29;20048;-87
2022/06/11 12:38:52;;;;;;;0.10;0.10;;;;;;;;;;4904265;29;20515;-87
2022/06/11 12:41:18;;;;;;;0.10;0.10;;;;;;;;;;4888717;29;20416;-87
2022/06/11 12:43:44;;;;;;;0.10;0.10;;;;;;;;;;4919647;29;20087;-87
2022/06/11 12:46:19;;;;;;;0.20;0.20;;;;;;;;;;4919471;29;20044;-87
2022/06/11 12:49:06;;;;;;;0.10;0.10;;;;;;;;;;4903776;29;20048;-88
2022/06/11 12:51:40;;;;;;;0.10;0.10;;;;;;;;;;4857191;29;20090;-87
2022/06/11 12:54:09;;;;;;;0.57;0.57;;;;;;;;;;4903688;29;20075;-87
2022/06/11 12:56:59;;;;;;;0.10;0.10;;;;;;;;;;4903618;29;20127;-88
2022/06/11 12:59:37;;;;;;;0.10;0.10;;;;;;;;;;4903669;29;20062;-87
2022/06/11 13:02:21;;;;;;;0.10;0.10;;;;;;;;;;4888012;29;20047;-90
2022/06/11 13:04:52;;;;;;;0.10;0.10;;;;;;;;;;4901887;29;20043;-90
2022/06/11 13:07:24;;;;;;;0.10;0.10;;;;;;;;;;4887980;29;20048;-90
2022/06/11 13:09:53;;;;;;;0.20;0.20;;;;;;;;;;4903252;29;20079;-91
2022/06/11 13:12:34;;;;;;;0.10;0.10;;;;;;;;;;4919100;29;20046;-91
2022/06/11 13:15:23;;;;;;;0.20;0.20;;;;;;;;;;4919206;29;20435;-91
2022/06/11 13:17:49;;;;;;;0.20;0.20;;;;;;;;;;4887713;29;20060;-90
2022/06/11 13:20:15;;;;;;;0.10;0.10;;;;;;;;;;4903289;29;20448;-90
2022/06/11 13:22:50;;;;;;;0.20;0.20;;;;;;;;;;4902941;29;20043;-90
2022/06/11 13:25:22;;;;;;;0.10;0.10;;;;;;;;;;4887752;29;20079;-94
2022/06/11 13:27:55;;;;;;;0.20;0.20;;;;;;;;;;4902935;29;20146;-92
2022/06/11 13:30:43;;;;;;;0.10;0.10;;;;;;;;;;4903692;29;20063;-88
2022/06/11 13:33:20;;;;;;;0.10;0.10;;;;;;;;;;4918653;29;20087;-93
2022/06/11 13:35:49;;;;;;;0.20;0.20;;;;;;;;;;4887448;29;20075;-89
2022/06/11 13:38:25;;;;;;;0.15;0.15;;;;;;;;;;4918488;29;20039;-90
2022/06/11 13:40:51;;;;;;;0.10;0.10;;;;;;;;;;4918695;29;20051;-89
2022/06/11 13:43:17;;;;;;;0.10;0.10;;;;;;;;;;4903011;29;20052;-91
2022/06/11 13:45:46;;;;;;;0.10;0.10;;;;;;;;;;4918222;29;20515;-90
2022/06/11 13:48:14;;;;;;;0.10;0.10;;;;;;;;;;4918206;29;20126;-89
2022/06/11 13:50:46;;;;;;;0.17;0.17;;;;;;;;;;4902495;29;20043;-89
2022/06/11 13:56:31;;;;;;;0.10;0.10;;;;;;;;;;4851815;29;20041;-90
2022/06/11 13:59:10;;;;;;;0.10;0.10;;;;;;;;;;4887202;29;20391;-91
2022/06/11 14:01:40;;;;;;;0.10;0.10;;;;;;;;;;4917685;29;20051;-90
2022/06/11 14:04:18;;;;;;;0.20;0.20;;;;;;;;;;4887115;29;20117;-91
2022/06/11 14:06:44;;;;;;;0.20;0.20;;;;;;;;;;4902500;29;20047;-90
2022/06/11 14:12:34;;;;;;;0.10;0.10;;;;;;;;;;4917913;29;20056;-89
2022/06/11 14:15:19;;;;;;;0.20;0.20;;;;;;;;;;4902423;29;20044;-91
2022/06/11 14:17:51;;;;;;;0.17;0.17;;;;;;;;;;4901809;29;20083;-91
2022/06/11 14:20:26;;;;;;;0.10;0.10;;;;;;;;;;4887698;29;20047;-91
2022/06/11 14:22:57;;;;;;;0.10;0.10;;;;;;;;;;4902609;29;20444;-89
2022/06/11 14:25:39;;;;;;;0.10;0.10;;;;;;;;;;4886587;29;20044;-90
2022/06/11 14:28:14;;;;;;;0.20;0.20;;;;;;;;;;4886797;29;20090;-90
2022/06/11 14:30:49;;;;;;;0.10;0.10;;;;;;;;;;4900424;29;20051;-90
2022/06/11 14:33:19;;;;;;;0.10;0.10;;;;;;;;;;4902184;29;20046;-90
2022/06/11 14:35:48;;;;;;;0.10;0.10;;;;;;;;;;4901975;29;20039;-90
2022/06/11 14:38:30;;;;;;;0.20;0.20;;;;;;;;;;4917786;29;20492;-90
2022/06/11 14:41:09;;;;;;;0.20;0.20;;;;;;;;;;4901897;29;20050;-90
2022/06/11 14:43:50;;;;;;;0.17;0.17;;;;;;;;;;4902049;29;20138;-90
2022/06/11 14:46:25;;;;;;;0.10;0.10;;;;;;;;;;4902160;29;20047;-91
2022/06/11 14:48:52;;;;;;;0.10;0.10;;;;;;;;;;4901894;29;20514;-91
2022/06/11 14:51:18;;;;;;;0.10;0.10;;;;;;;;;;4886628;29;20047;-91
2022/06/11 14:54:04;;;;;;;0.20;0.20;;;;;;;;;;4902030;29;20040;-91
2022/06/11 14:56:37;;;;;;;0.10;0.10;;;;;;;;;;4886656;29;20047;-91
2022/06/11 14:59:12;;;;;;;0.20;0.20;;;;;;;;;;4885779;29;20052;-92
2022/06/11 15:01:38;;;;;;;0.10;0.10;;;;;;;;;;4901740;29;20134;-92
2022/06/11 15:04:14;;;;;;;0.20;0.20;;;;;;;;;;4901979;29;20091;-91
2022/06/11 15:06:42;;;;;;;0.10;0.10;;;;;;;;;;4887128;29;20054;-90
2022/06/11 15:09:11;;;;;;;0.10;0.10;;;;;;;;;;4886593;29;20047;-90